Time;durP1;ratioP1;P1;durP2;ratioP2;P2;SDS_P1;SDS_P2;PMS_P1;PMS_P2;Temp;Humidity;BMP_temperature;BMP_pressure;BME280_temperature;BME280_humidity;BME280_pressure;Samples;Min_cycle;Max_cycle;Signal;HPM_P1;HPM_P2
2023/01/04 00:01:51;;;;;;;9.13;5.65;;;;;;;;;;5114050;28;20019;-72
2023/01/04 00:04:17;;;;;;;10.15;6.72;;;;;;;;;;5096258;28;20057;-72
2023/01/04 00:06:43;;;;;;;9.15;6.22;;;;;;;;;;5096007;28;20235;-72
2023/01/04 00:09:09;;;;;;;10.95;6.60;;;;;;;;;;5114082;28;20383;-72
2023/01/04 00:11:36;;;;;;;12.18;7.70;;;;;;;;;;5114068;28;20400;-72
2023/01/04 00:14:02;;;;;;;13.05;8.13;;;;;;;;;;5114000;28;20419;-72
2023/01/04 00:16:29;;;;;;;13.20;7.93;;;;;;;;;;5113908;28;20020;-72
2023/01/04 00:18:55;;;;;;;13.93;8.27;;;;;;;;;;5113712;28;20025;-72
2023/01/04 00:21:23;;;;;;;14.07;8.30;;;;;;;;;;5114148;28;20036;-72
2023/01/04 00:23:51;;;;;;;14.38;8.45;;;;;;;;;;5114055;28;20015;-72
2023/01/04 00:26:19;;;;;;;12.85;7.32;;;;;;;;;;5113735;28;20028;-72
2023/01/04 00:28:46;;;;;;;11.90;6.13;;;;;;;;;;5113715;28;20030;-72
2023/01/04 00:31:13;;;;;;;10.88;6.40;;;;;;;;;;5113404;28;20019;-71
2023/01/04 00:33:39;;;;;;;9.77;6.30;;;;;;;;;;5113898;28;20105;-72
2023/01/04 00:36:07;;;;;;;13.07;6.85;;;;;;;;;;5113946;28;20023;-72
2023/01/04 00:38:34;;;;;;;10.23;6.10;;;;;;;;;;5113610;28;20043;-72
2023/01/04 00:41:00;;;;;;;10.07;6.22;;;;;;;;;;5113506;28;20036;-72
2023/01/04 00:43:27;;;;;;;9.75;5.95;;;;;;;;;;5113257;28;20391;-72
2023/01/04 00:45:53;;;;;;;8.88;5.22;;;;;;;;;;5113401;28;20046;-72
2023/01/04 00:48:20;;;;;;;15.95;8.55;;;;;;;;;;5113431;28;20509;-72
2023/01/04 00:50:47;;;;;;;19.70;9.23;;;;;;;;;;5113395;28;20031;-72
2023/01/04 00:53:13;;;;;;;15.07;7.90;;;;;;;;;;5113568;28;20015;-72
2023/01/04 00:55:40;;;;;;;9.65;6.43;;;;;;;;;;5113185;28;20501;-72
2023/01/04 00:58:06;;;;;;;10.80;6.32;;;;;;;;;;5112955;28;20029;-72
2023/01/04 01:00:33;;;;;;;10.07;5.43;;;;;;;;;;5113253;28;20091;-72
2023/01/04 01:02:59;;;;;;;8.88;5.40;;;;;;;;;;5113120;28;20091;-71
2023/01/04 01:05:25;;;;;;;10.45;5.75;;;;;;;;;;5113043;28;20026;-72
2023/01/04 01:07:52;;;;;;;9.60;6.25;;;;;;;;;;5113360;28;20027;-72
2023/01/04 01:10:18;;;;;;;7.93;5.75;;;;;;;;;;5112536;28;20016;-72
2023/01/04 01:12:44;;;;;;;10.15;6.15;;;;;;;;;;5112848;28;20369;-72
2023/01/04 01:15:11;;;;;;;14.70;7.88;;;;;;;;;;5112967;28;20480;-72
2023/01/04 01:17:37;;;;;;;14.13;8.32;;;;;;;;;;5113105;28;20038;-72
2023/01/04 01:20:04;;;;;;;13.13;6.78;;;;;;;;;;5094738;28;20050;-72
2023/01/04 01:22:31;;;;;;;13.07;6.63;;;;;;;;;;5113155;28;20016;-72
2023/01/04 01:24:57;;;;;;;9.65;6.18;;;;;;;;;;5112641;28;20019;-72
2023/01/04 01:27:23;;;;;;;17.48;6.45;;;;;;;;;;5112296;28;20072;-72
2023/01/04 01:29:50;;;;;;;13.10;6.60;;;;;;;;;;5112831;28;20024;-72
2023/01/04 01:32:16;;;;;;;10.57;7.15;;;;;;;;;;5112544;28;20387;-72
2023/01/04 01:34:42;;;;;;;7.75;5.22;;;;;;;;;;5113006;28;20024;-72
2023/01/04 01:37:09;;;;;;;6.72;4.93;;;;;;;;;;5112621;28;20022;-72
2023/01/04 01:39:35;;;;;;;12.40;7.47;;;;;;;;;;5112110;28;20040;-72
2023/01/04 01:42:01;;;;;;;8.20;5.57;;;;;;;;;;5112252;28;20406;-72
2023/01/04 01:44:43;;;;;;;8.30;5.38;;;;;;;;;;5112630;28;20019;-72
2023/01/04 01:47:14;;;;;;;10.52;5.40;;;;;;;;;;5094476;28;20032;-72
2023/01/04 01:49:41;;;;;;;9.68;5.20;;;;;;;;;;5112553;28;20026;-71
2023/01/04 01:52:10;;;;;;;8.77;5.28;;;;;;;;;;5112446;28;20016;-71
2023/01/04 01:54:41;;;;;;;9.45;5.40;;;;;;;;;;5112480;28;20376;-71
2023/01/04 01:57:10;;;;;;;7.97;5.70;;;;;;;;;;5111981;28;20023;-71
2023/01/04 01:59:38;;;;;;;10.40;5.80;;;;;;;;;;5112411;28;20031;-71
2023/01/04 02:02:04;;;;;;;12.90;7.20;;;;;;;;;;5112311;28;20056;-73
2023/01/04 02:04:30;;;;;;;12.75;6.55;;;;;;;;;;5112357;28;20023;-72
2023/01/04 02:06:58;;;;;;;14.25;7.78;;;;;;;;;;5112572;28;20038;-72
2023/01/04 02:09:24;;;;;;;12.75;7.65;;;;;;;;;;5112412;28;20041;-72
2023/01/04 02:11:51;;;;;;;12.95;7.95;;;;;;;;;;5112106;28;20012;-72
2023/01/04 02:14:27;;;;;;;17.15;8.93;;;;;;;;;;5112350;28;20020;-71
2023/01/04 02:16:55;;;;;;;16.77;8.82;;;;;;;;;;5112713;28;20479;-72
2023/01/04 02:19:39;;;;;;;13.02;6.90;;;;;;;;;;5112331;28;20034;-72
2023/01/04 02:22:06;;;;;;;13.13;7.95;;;;;;;;;;5114328;28;20026;-72
2023/01/04 02:24:38;;;;;;;13.95;7.28;;;;;;;;;;5116029;28;20488;-72
2023/01/04 02:27:40;;;;;;;22.75;10.93;;;;;;;;;;5097666;28;20027;-72
2023/01/04 02:30:22;;;;;;;18.98;10.38;;;;;;;;;;5053468;28;20017;-72
2023/01/04 02:33:11;;;;;;;26.75;12.75;;;;;;;;;;5053019;28;20517;-72
2023/01/04 02:35:59;;;;;;;31.90;12.00;;;;;;;;;;5053033;28;20025;-72
2023/01/04 02:38:35;;;;;;;27.58;11.55;;;;;;;;;;5052823;28;20037;-72
2023/01/04 02:41:02;;;;;;;42.05;12.18;;;;;;;;;;5052591;28;20033;-72
2023/01/04 02:46:25;;;;;;;37.50;12.20;;;;;;;;;;5052978;28;20035;-72
2023/01/04 02:51:37;;;;;;;89.10;13.52;;;;;;;;;;5052815;28;20602;-72
2023/01/04 02:54:09;;;;;;;33.72;12.32;;;;;;;;;;5052235;28;20382;-71
2023/01/04 02:56:38;;;;;;;26.08;11.52;;;;;;;;;;5036280;28;20029;-72
2023/01/04 02:59:19;;;;;;;41.38;11.57;;;;;;;;;;5052668;28;20549;-72
2023/01/04 03:07:43;;;;;;;41.60;12.43;;;;;;;;;;5115616;28;20031;-72
2023/01/04 03:10:18;;;;;;;46.70;13.13;;;;;;;;;;5115171;28;20053;-72
2023/01/04 03:12:47;;;;;;;50.53;12.07;;;;;;;;;;5115228;28;20373;-72
2023/01/04 03:15:22;;;;;;;66.22;12.82;;;;;;;;;;5115301;28;20488;-72
2023/01/04 03:17:56;;;;;;;52.47;10.65;;;;;;;;;;5115097;28;20030;-72
2023/01/04 03:20:24;;;;;;;43.88;11.00;;;;;;;;;;5115138;28;20061;-72
2023/01/04 03:37:24;;;;;;;46.90;10.57;;;;;;;;;;5094636;28;20024;-72
2023/01/04 03:48:31;;;;;;;18.95;7.75;;;;;;;;;;5094337;28;20036;-70
2023/01/04 03:51:00;;;;;;;29.48;8.23;;;;;;;;;;5094478;28;20040;-72
2023/01/04 03:53:27;;;;;;;47.35;7.85;;;;;;;;;;5093624;28;20021;-72
2023/01/04 03:55:55;;;;;;;45.60;8.25;;;;;;;;;;5094429;28;20047;-72
2023/01/04 03:58:22;;;;;;;19.77;7.32;;;;;;;;;;5094252;28;20030;-72
2023/01/04 04:00:48;;;;;;;39.78;7.65;;;;;;;;;;5093810;28;20028;-72
2023/01/04 04:03:14;;;;;;;66.97;8.30;;;;;;;;;;5093938;28;20038;-72
2023/01/04 04:08:30;;;;;;;24.63;9.60;;;;;;;;;;5093295;28;20060;-69
2023/01/04 04:11:28;;;;;;;24.23;8.80;;;;;;;;;;5093705;28;20028;-71
2023/01/04 04:13:44;;;;;;;21.80;8.75;;;;;;;;;;5093592;28;20461;-72
2023/01/04 04:16:10;;;;;;;28.00;8.52;;;;;;;;;;5093667;28;20039;-72
2023/01/04 04:18:37;;;;;;;30.83;9.07;;;;;;;;;;5075441;28;20032;-72
2023/01/04 04:21:03;;;;;;;20.08;8.30;;;;;;;;;;5093092;28;20028;-71
2023/01/04 04:23:30;;;;;;;42.40;9.40;;;;;;;;;;5075550;28;20387;-71
2023/01/04 04:25:56;;;;;;;84.82;10.07;;;;;;;;;;5108600;28;20080;-71
2023/01/04 04:28:22;;;;;;;26.27;9.55;;;;;;;;;;5113818;28;20030;-72
2023/01/04 04:30:49;;;;;;;59.00;9.90;;;;;;;;;;5113739;28;20023;-72
2023/01/04 04:33:15;;;;;;;27.17;9.55;;;;;;;;;;5113941;28;20053;-72
2023/01/04 04:35:42;;;;;;;62.85;9.52;;;;;;;;;;5113339;28;20038;-72
2023/01/04 04:38:08;;;;;;;51.65;8.90;;;;;;;;;;5113442;28;20379;-72
2023/01/04 04:43:19;;;;;;;21.38;6.65;;;;;;;;;;5113179;28;20036;-71
2023/01/04 04:45:45;;;;;;;54.75;8.43;;;;;;;;;;5112887;28;20391;-72
2023/01/04 04:48:12;;;;;;;62.40;8.68;;;;;;;;;;5113452;28;20028;-72
2023/01/04 04:50:38;;;;;;;90.22;8.35;;;;;;;;;;5112975;28;20022;-72
2023/01/04 04:53:04;;;;;;;58.53;8.13;;;;;;;;;;5113539;28;20030;-72
2023/01/04 04:55:30;;;;;;;41.40;7.78;;;;;;;;;;5113477;28;20031;-72
2023/01/04 04:57:57;;;;;;;87.45;8.95;;;;;;;;;;5094978;28;20020;-72
2023/01/04 05:00:23;;;;;;;71.70;8.10;;;;;;;;;;5113167;28;20027;-72
2023/01/04 05:02:49;;;;;;;55.72;8.50;;;;;;;;;;5113061;28;20022;-72
2023/01/04 05:05:16;;;;;;;30.80;7.95;;;;;;;;;;5112795;28;20529;-72
2023/01/04 05:07:42;;;;;;;25.05;8.02;;;;;;;;;;5113008;28;20376;-72
2023/01/04 05:10:09;;;;;;;27.98;7.60;;;;;;;;;;5112805;28;20020;-72
2023/01/04 05:15:20;;;;;;;37.33;7.40;;;;;;;;;;5112910;28;20476;-72
2023/01/04 05:17:46;;;;;;;36.88;7.03;;;;;;;;;;5113145;28;20026;-72
2023/01/04 05:20:12;;;;;;;28.70;6.57;;;;;;;;;;5112467;28;20027;-72
2023/01/04 05:22:39;;;;;;;31.48;6.95;;;;;;;;;;5112798;28;20023;-72
2023/01/04 05:25:07;;;;;;;32.42;5.60;;;;;;;;;;5112924;28;20037;-72
2023/01/04 05:27:33;;;;;;;15.75;5.90;;;;;;;;;;5094394;28;20046;-72
2023/01/04 05:32:44;;;;;;;25.02;5.35;;;;;;;;;;5112742;28;20040;-72
2023/01/04 05:35:11;;;;;;;11.07;5.60;;;;;;;;;;5112463;28;20016;-72
2023/01/04 05:37:37;;;;;;;28.75;5.93;;;;;;;;;;5112563;28;20024;-71
2023/01/04 05:40:03;;;;;;;33.85;5.55;;;;;;;;;;5112406;28;20524;-72
2023/01/04 05:42:29;;;;;;;30.13;7.25;;;;;;;;;;5112634;28;20020;-72
2023/01/04 05:44:57;;;;;;;20.60;7.45;;;;;;;;;;5112560;28;20551;-72
2023/01/04 05:47:23;;;;;;;21.60;7.82;;;;;;;;;;5112859;28;20012;-72
2023/01/04 05:49:50;;;;;;;17.80;7.82;;;;;;;;;;5112431;28;20024;-72
2023/01/04 05:52:16;;;;;;;64.32;7.72;;;;;;;;;;5112701;28;20024;-72
2023/01/04 05:54:42;;;;;;;52.75;6.72;;;;;;;;;;5112490;28;20399;-72
2023/01/04 05:57:09;;;;;;;52.03;7.07;;;;;;;;;;5116543;28;20019;-72
2023/01/04 05:59:36;;;;;;;32.25;6.72;;;;;;;;;;5116489;28;20566;-72
2023/01/04 06:02:02;;;;;;;40.45;6.50;;;;;;;;;;5116538;28;20032;-72
2023/01/04 06:04:28;;;;;;;36.67;7.10;;;;;;;;;;5098226;28;20026;-72
2023/01/04 06:06:55;;;;;;;21.55;6.57;;;;;;;;;;5116504;28;20094;-72
2023/01/04 06:09:21;;;;;;;49.63;6.95;;;;;;;;;;5116665;28;20020;-72
2023/01/04 06:11:47;;;;;;;44.03;7.72;;;;;;;;;;5116423;28;20027;-72
2023/01/04 06:14:13;;;;;;;47.38;9.68;;;;;;;;;;5116630;28;20030;-72
2023/01/04 06:16:40;;;;;;;47.83;9.20;;;;;;;;;;5098038;28;20399;-73
2023/01/04 06:19:06;;;;;;;32.35;8.25;;;;;;;;;;5115929;28;20024;-72
2023/01/04 06:21:32;;;;;;;27.33;8.77;;;;;;;;;;5116191;28;20036;-71
2023/01/04 06:23:59;;;;;;;58.13;8.45;;;;;;;;;;5116159;28;20030;-72
2023/01/04 06:26:25;;;;;;;38.20;8.15;;;;;;;;;;5116178;28;20024;-72
2023/01/04 06:28:51;;;;;;;39.08;8.18;;;;;;;;;;5116098;28;20464;-72
2023/01/04 06:31:18;;;;;;;42.45;8.73;;;;;;;;;;5116230;28;20024;-72
2023/01/04 06:33:44;;;;;;;34.10;9.90;;;;;;;;;;5115553;28;20471;-72
2023/01/04 06:36:10;;;;;;;36.85;9.82;;;;;;;;;;5115985;28;20030;-72
2023/01/04 06:38:37;;;;;;;50.25;9.20;;;;;;;;;;5115807;28;20553;-72
2023/01/04 06:41:03;;;;;;;46.72;11.30;;;;;;;;;;5115886;28;20038;-72
2023/01/04 06:43:29;;;;;;;67.97;10.00;;;;;;;;;;5115807;28;20026;-72
2023/01/04 06:45:56;;;;;;;26.55;9.93;;;;;;;;;;5115673;28;20028;-72
2023/01/04 06:48:22;;;;;;;24.45;8.45;;;;;;;;;;5115293;28;20472;-72
2023/01/04 06:50:48;;;;;;;54.20;9.25;;;;;;;;;;5115906;28;20034;-72
2023/01/04 06:53:14;;;;;;;43.65;9.43;;;;;;;;;;5115667;28;20027;-72
2023/01/04 06:55:43;;;;;;;31.17;9.10;;;;;;;;;;5115799;28;20023;-72
2023/01/04 06:58:09;;;;;;;34.53;9.15;;;;;;;;;;5115529;28;20020;-72
2023/01/04 07:00:35;;;;;;;49.97;7.70;;;;;;;;;;5115341;28;20072;-71
2023/01/04 07:03:01;;;;;;;31.27;8.25;;;;;;;;;;5115111;28;20498;-72
2023/01/04 07:05:28;;;;;;;34.15;8.00;;;;;;;;;;5115610;28;20034;-72
2023/01/04 07:07:54;;;;;;;58.72;8.43;;;;;;;;;;5114873;28;20026;-72
2023/01/04 07:10:21;;;;;;;32.03;9.05;;;;;;;;;;5115350;28;20020;-72
2023/01/04 07:12:47;;;;;;;45.55;9.63;;;;;;;;;;5115194;28;20030;-72
2023/01/04 07:15:13;;;;;;;45.65;9.50;;;;;;;;;;5114945;28;20365;-72
2023/01/04 07:17:39;;;;;;;38.88;8.50;;;;;;;;;;5114967;28;20034;-72
2023/01/04 07:20:06;;;;;;;51.53;8.65;;;;;;;;;;5111487;28;20035;-72
2023/01/04 07:22:32;;;;;;;43.35;8.30;;;;;;;;;;5109280;28;20028;-71
2023/01/04 07:24:58;;;;;;;36.42;8.23;;;;;;;;;;5114575;28;20496;-72
2023/01/04 07:27:25;;;;;;;24.13;7.13;;;;;;;;;;5112769;28;20030;-72
2023/01/04 07:29:51;;;;;;;22.13;8.02;;;;;;;;;;5114636;28;20031;-71
2023/01/04 07:32:17;;;;;;;24.08;7.55;;;;;;;;;;5111929;27;20020;-72
2023/01/04 07:34:44;;;;;;;23.63;8.25;;;;;;;;;;5112251;27;20019;-72
2023/01/04 07:37:11;;;;;;;24.60;8.75;;;;;;;;;;5112431;28;20031;-72
2023/01/04 07:39:38;;;;;;;34.22;9.18;;;;;;;;;;5113762;28;20473;-72
2023/01/04 07:42:04;;;;;;;18.38;8.35;;;;;;;;;;5114225;28;20032;-72
2023/01/04 07:44:30;;;;;;;23.98;7.72;;;;;;;;;;5104824;27;20020;-71
2023/01/04 07:46:57;;;;;;;21.02;8.27;;;;;;;;;;5098882;28;20042;-71
2023/01/04 07:49:23;;;;;;;30.52;10.52;;;;;;;;;;5114077;28;20012;-72
2023/01/04 07:51:50;;;;;;;29.92;9.90;;;;;;;;;;5095685;28;20068;-71
2023/01/04 07:54:17;;;;;;;29.58;10.90;;;;;;;;;;5113630;28;20484;-72
2023/01/04 07:56:43;;;;;;;164.13;41.88;;;;;;;;;;5112800;28;20020;-71
2023/01/04 07:59:11;;;;;;;105.70;34.03;;;;;;;;;;5113018;28;20031;-71
2023/01/04 08:01:37;;;;;;;120.90;26.98;;;;;;;;;;5113506;28;20034;-71
2023/01/04 08:04:08;;;;;;;147.52;33.85;;;;;;;;;;5113410;28;20027;-72
2023/01/04 08:06:35;;;;;;;132.65;45.05;;;;;;;;;;5113127;28;20023;-72
2023/01/04 08:09:01;;;;;;;134.27;36.13;;;;;;;;;;5112839;28;20433;-72
2023/01/04 08:11:28;;;;;;;108.80;35.25;;;;;;;;;;5112390;28;20020;-71
2023/01/04 08:13:54;;;;;;;72.03;26.23;;;;;;;;;;5113107;28;20026;-72
2023/01/04 08:16:31;;;;;;;98.22;32.72;;;;;;;;;;5113191;28;20022;-72
2023/01/04 08:19:01;;;;;;;69.22;13.95;;;;;;;;;;5112206;28;20036;-72
2023/01/04 08:21:28;;;;;;;44.65;12.75;;;;;;;;;;5111483;28;20027;-72
2023/01/04 08:23:54;;;;;;;40.67;14.18;;;;;;;;;;5112169;28;20042;-72
2023/01/04 08:26:21;;;;;;;56.08;13.20;;;;;;;;;;5112898;28;20377;-72
2023/01/04 08:28:48;;;;;;;54.38;13.93;;;;;;;;;;5112695;28;20028;-70
2023/01/04 08:31:16;;;;;;;46.08;9.80;;;;;;;;;;5112876;28;20031;-71
2023/01/04 08:33:44;;;;;;;33.92;10.27;;;;;;;;;;5112499;28;20377;-71
2023/01/04 08:36:12;;;;;;;19.15;9.95;;;;;;;;;;5113220;28;20016;-71
2023/01/04 08:38:39;;;;;;;36.53;12.43;;;;;;;;;;5112717;28;20040;-72
2023/01/04 08:41:06;;;;;;;41.92;10.05;;;;;;;;;;5112537;28;20028;-71
2023/01/04 08:43:32;;;;;;;26.67;10.27;;;;;;;;;;5112569;28;20015;-71
2023/01/04 08:45:58;;;;;;;21.30;9.23;;;;;;;;;;5111681;28;20760;-71
2023/01/04 08:48:24;;;;;;;21.40;9.20;;;;;;;;;;5110372;28;20515;-72
2023/01/04 08:50:51;;;;;;;18.58;8.60;;;;;;;;;;5111818;28;20028;-72
2023/01/04 08:53:17;;;;;;;22.80;9.57;;;;;;;;;;5111875;28;20026;-72
2023/01/04 08:55:50;;;;;;;37.17;9.73;;;;;;;;;;5111842;28;20376;-72
2023/01/04 08:58:17;;;;;;;18.02;9.45;;;;;;;;;;5111374;28;20023;-71
2023/01/04 09:00:43;;;;;;;16.17;9.52;;;;;;;;;;5112067;28;20036;-72
2023/01/04 09:03:09;;;;;;;31.48;9.25;;;;;;;;;;5112421;28;20039;-72
2023/01/04 09:05:36;;;;;;;26.02;9.23;;;;;;;;;;5111217;28;20027;-73
2023/01/04 09:08:02;;;;;;;20.02;10.07;;;;;;;;;;5112407;28;20044;-73
2023/01/04 09:10:29;;;;;;;27.20;11.10;;;;;;;;;;5111830;28;20041;-70
2023/01/04 09:12:55;;;;;;;15.82;9.48;;;;;;;;;;5110529;28;20034;-72
2023/01/04 09:15:22;;;;;;;20.73;9.70;;;;;;;;;;5112700;28;20078;-72
2023/01/04 09:17:51;;;;;;;15.00;8.75;;;;;;;;;;5112180;28;20024;-72
2023/01/04 09:20:17;;;;;;;21.90;9.93;;;;;;;;;;5112016;28;20058;-73
2023/01/04 09:22:44;;;;;;;27.23;10.63;;;;;;;;;;5110109;28;20022;-72
2023/01/04 09:25:10;;;;;;;20.58;9.85;;;;;;;;;;5093493;28;20496;-72
2023/01/04 09:27:38;;;;;;;21.67;11.50;;;;;;;;;;5093668;28;20036;-72
2023/01/04 09:30:05;;;;;;;18.65;9.35;;;;;;;;;;5111749;28;20030;-72
2023/01/04 09:32:31;;;;;;;33.03;12.50;;;;;;;;;;5112451;28;20042;-72
2023/01/04 09:34:58;;;;;;;29.73;11.27;;;;;;;;;;5094404;28;20034;-72
2023/01/04 09:37:24;;;;;;;40.63;10.77;;;;;;;;;;5112158;28;20038;-72
2023/01/04 09:39:50;;;;;;;21.13;10.68;;;;;;;;;;5111251;28;20043;-72
2023/01/04 09:42:26;;;;;;;32.13;11.65;;;;;;;;;;5111643;28;20047;-72
2023/01/04 09:45:00;;;;;;;32.05;11.05;;;;;;;;;;5111693;28;20012;-73
2023/01/04 09:47:35;;;;;;;42.35;12.23;;;;;;;;;;5111865;28;20030;-72
2023/01/04 09:50:27;;;;;;;28.75;10.82;;;;;;;;;;5111512;28;20035;-70
2023/01/04 09:52:53;;;;;;;28.85;10.50;;;;;;;;;;5107518;28;20054;-71
2023/01/04 09:55:20;;;;;;;27.45;11.63;;;;;;;;;;5111413;28;20020;-72
2023/01/04 09:57:51;;;;;;;32.72;10.05;;;;;;;;;;5111460;28;20024;-71
2023/01/04 10:00:25;;;;;;;25.45;11.27;;;;;;;;;;5111091;28;20032;-70
2023/01/04 10:03:07;;;;;;;25.88;10.25;;;;;;;;;;5110474;28;21295;-71
2023/01/04 10:05:33;;;;;;;17.52;9.98;;;;;;;;;;5108607;28;20510;-71
2023/01/04 10:08:02;;;;;;;34.10;10.38;;;;;;;;;;5111111;28;20027;-72
2023/01/04 10:10:48;;;;;;;25.10;10.20;;;;;;;;;;5111022;28;20028;-72
2023/01/04 10:13:18;;;;;;;28.17;9.32;;;;;;;;;;5111068;28;20024;-73
2023/01/04 10:15:51;;;;;;;24.10;9.85;;;;;;;;;;5111337;28;20027;-71
2023/01/04 10:18:33;;;;;;;17.95;10.07;;;;;;;;;;5111399;28;20027;-73
2023/01/04 10:21:07;;;;;;;18.65;9.95;;;;;;;;;;5111253;28;20080;-72
2023/01/04 10:23:45;;;;;;;23.73;10.20;;;;;;;;;;5110782;28;20031;-72
2023/01/04 10:26:13;;;;;;;15.88;9.52;;;;;;;;;;5110996;28;20039;-72
2023/01/04 10:28:58;;;;;;;25.13;11.73;;;;;;;;;;5093111;28;20019;-72
2023/01/04 10:31:34;;;;;;;23.08;11.25;;;;;;;;;;5111026;28;20042;-73
2023/01/04 10:34:04;;;;;;;23.60;11.93;;;;;;;;;;5111380;28;20023;-73
2023/01/04 10:36:30;;;;;;;20.70;11.18;;;;;;;;;;5111226;28;20037;-72
2023/01/04 10:39:04;;;;;;;31.77;11.48;;;;;;;;;;5110629;28;20052;-72
2023/01/04 10:41:34;;;;;;;22.60;11.90;;;;;;;;;;5110809;28;20084;-72
2023/01/04 10:44:04;;;;;;;32.47;12.37;;;;;;;;;;5114810;28;20012;-73
2023/01/04 10:46:56;;;;;;;30.17;12.07;;;;;;;;;;5096817;28;20421;-73
2023/01/04 10:49:32;;;;;;;22.27;11.18;;;;;;;;;;5115346;28;20028;-72
2023/01/04 10:52:11;;;;;;;17.10;9.93;;;;;;;;;;5114481;28;20028;-73
2023/01/04 10:54:43;;;;;;;22.15;11.52;;;;;;;;;;5114593;28;20089;-73
2023/01/04 10:57:45;;;;;;;19.40;12.05;;;;;;;;;;5114925;28;20032;-73
2023/01/04 11:00:32;;;;;;;17.05;11.18;;;;;;;;;;5003032;28;20037;-71
2023/01/04 11:03:03;;;;;;;20.67;10.82;;;;;;;;;;4986477;28;20038;-73
2023/01/04 11:05:41;;;;;;;19.08;11.80;;;;;;;;;;4992937;28;20041;-73
2023/01/04 11:08:13;;;;;;;19.00;11.40;;;;;;;;;;5008540;28;20173;-73
2023/01/04 11:10:45;;;;;;;21.23;13.02;;;;;;;;;;4992679;28;20073;-73
2023/01/04 11:13:12;;;;;;;18.25;12.07;;;;;;;;;;4992740;28;20027;-73
2023/01/04 11:15:41;;;;;;;19.83;11.85;;;;;;;;;;4992792;28;20044;-73
2023/01/04 11:18:10;;;;;;;19.23;12.80;;;;;;;;;;5008778;28;20462;-73
2023/01/04 11:20:36;;;;;;;14.63;9.65;;;;;;;;;;4992437;28;20412;-73
2023/01/04 11:23:15;;;;;;;17.83;10.85;;;;;;;;;;4992188;28;20038;-73
2023/01/04 11:25:50;;;;;;;15.40;9.85;;;;;;;;;;5005217;28;20018;-73
2023/01/04 11:28:17;;;;;;;20.33;11.55;;;;;;;;;;5011808;28;20560;-72
2023/01/04 11:30:49;;;;;;;22.70;14.00;;;;;;;;;;5011741;28;20034;-73
2023/01/04 11:33:18;;;;;;;22.35;12.43;;;;;;;;;;5022979;28;20014;-73
2023/01/04 11:35:47;;;;;;;15.32;10.68;;;;;;;;;;5094358;28;20030;-73
2023/01/04 11:38:18;;;;;;;15.50;9.68;;;;;;;;;;5093459;28;20083;-72
2023/01/04 11:40:54;;;;;;;12.80;9.25;;;;;;;;;;5093838;28;20423;-73
2023/01/04 11:43:21;;;;;;;12.10;9.52;;;;;;;;;;5094058;28;20492;-72
2023/01/04 11:45:54;;;;;;;12.63;8.60;;;;;;;;;;5094030;28;20400;-73
2023/01/04 11:48:30;;;;;;;11.73;8.55;;;;;;;;;;5093859;28;20392;-73
2023/01/04 11:50:57;;;;;;;12.95;8.02;;;;;;;;;;5075448;28;20044;-73
2023/01/04 11:53:23;;;;;;;11.93;7.93;;;;;;;;;;5093819;28;20020;-72
2023/01/04 11:55:50;;;;;;;10.55;8.02;;;;;;;;;;5076050;28;20024;-72
2023/01/04 11:58:17;;;;;;;9.88;7.63;;;;;;;;;;5093681;28;20035;-73
2023/01/04 12:00:51;;;;;;;10.52;8.23;;;;;;;;;;5093246;28;20032;-73
2023/01/04 12:03:21;;;;;;;10.63;8.27;;;;;;;;;;5093590;28;20032;-73
2023/01/04 12:05:48;;;;;;;13.13;10.05;;;;;;;;;;5093343;28;20034;-72
2023/01/04 12:08:25;;;;;;;16.10;10.52;;;;;;;;;;5093483;28;20446;-73
2023/01/04 12:10:52;;;;;;;14.05;10.00;;;;;;;;;;5093381;28;20426;-73
2023/01/04 12:13:18;;;;;;;13.93;9.40;;;;;;;;;;5093496;28;20400;-73
2023/01/04 12:15:47;;;;;;;14.55;10.50;;;;;;;;;;5093448;28;20484;-73
2023/01/04 12:18:21;;;;;;;16.42;10.73;;;;;;;;;;5093155;28;20393;-73
2023/01/04 12:20:47;;;;;;;17.15;10.18;;;;;;;;;;5092923;28;20024;-72
2023/01/04 12:23:14;;;;;;;15.45;9.98;;;;;;;;;;5093565;28;20036;-73
2023/01/04 12:25:44;;;;;;;18.10;11.75;;;;;;;;;;5106261;28;20007;-73
2023/01/04 12:28:29;;;;;;;14.45;11.07;;;;;;;;;;5113219;28;20034;-73
2023/01/04 12:31:15;;;;;;;18.75;11.55;;;;;;;;;;5113218;28;20212;-73
2023/01/04 12:33:42;;;;;;;15.15;11.40;;;;;;;;;;5113173;28;20411;-73
2023/01/04 12:36:08;;;;;;;15.88;12.15;;;;;;;;;;5113146;28;20049;-72
2023/01/04 12:38:53;;;;;;;17.55;12.27;;;;;;;;;;5113161;28;20035;-72
2023/01/04 12:41:40;;;;;;;17.30;11.65;;;;;;;;;;5113038;28;20035;-73
2023/01/04 12:44:24;;;;;;;13.10;10.57;;;;;;;;;;5050178;28;20493;-73
2023/01/04 12:49:39;;;;;;;12.55;8.57;;;;;;;;;;5049842;28;20663;-73
2023/01/04 12:52:05;;;;;;;14.57;8.75;;;;;;;;;;5050084;28;20025;-73
2023/01/04 12:54:43;;;;;;;12.10;8.85;;;;;;;;;;5050265;28;20048;-73
2023/01/04 12:57:10;;;;;;;9.32;7.68;;;;;;;;;;5050529;28;20031;-73
2023/01/04 12:59:38;;;;;;;10.27;7.88;;;;;;;;;;5050374;28;20033;-73
2023/01/04 13:02:18;;;;;;;10.02;8.15;;;;;;;;;;5049654;28;20166;-71
2023/01/04 13:04:44;;;;;;;11.65;8.93;;;;;;;;;;5049105;28;20033;-71
2023/01/04 13:07:16;;;;;;;12.02;9.52;;;;;;;;;;5049851;28;20039;-71
2023/01/04 13:09:45;;;;;;;11.02;8.63;;;;;;;;;;5050048;28;20026;-71
2023/01/04 13:12:30;;;;;;;10.75;8.85;;;;;;;;;;5049795;28;20481;-71
2023/01/04 13:15:05;;;;;;;11.07;8.85;;;;;;;;;;5049865;28;20044;-70
2023/01/04 13:17:37;;;;;;;13.55;9.63;;;;;;;;;;5049168;28;20033;-70
2023/01/04 13:20:18;;;;;;;12.40;10.15;;;;;;;;;;5050776;28;20545;-70
2023/01/04 13:22:44;;;;;;;;;;;;;;;;;;5092448;28;20024;-70
2023/01/04 13:25:13;;;;;;;15.27;10.90;;;;;;;;;;5101146;28;19903;-71
2023/01/04 13:27:53;;;;;;;17.30;11.90;;;;;;;;;;5112499;28;20031;-71
2023/01/04 13:30:34;;;;;;;13.43;11.63;;;;;;;;;;5112724;28;20026;-70
2023/01/04 13:33:07;;;;;;;18.35;12.43;;;;;;;;;;5110883;28;20030;-71
2023/01/04 13:35:33;;;;;;;13.88;12.20;;;;;;;;;;5107707;28;20020;-70
2023/01/04 13:38:00;;;;;;;16.42;11.80;;;;;;;;;;5112043;28;20032;-71
2023/01/04 13:40:34;;;;;;;15.13;10.80;;;;;;;;;;5093732;28;20051;-71
2023/01/04 13:43:15;;;;;;;15.48;10.90;;;;;;;;;;5112038;28;20399;-71
2023/01/04 13:46:00;;;;;;;11.75;9.77;;;;;;;;;;5112386;28;20038;-71
2023/01/04 13:48:29;;;;;;;13.73;9.43;;;;;;;;;;5093508;28;20028;-71
2023/01/04 13:51:02;;;;;;;12.98;10.10;;;;;;;;;;5111904;28;20399;-70
2023/01/04 13:53:29;;;;;;;10.50;9.20;;;;;;;;;;5111696;28;20506;-71
2023/01/04 13:56:02;;;;;;;15.27;11.63;;;;;;;;;;5111925;28;20033;-71
2023/01/04 13:58:30;;;;;;;11.82;9.40;;;;;;;;;;5093700;28;20496;-71
2023/01/04 14:00:56;;;;;;;17.33;9.77;;;;;;;;;;5111192;28;20403;-71
2023/01/04 14:03:30;;;;;;;13.30;9.57;;;;;;;;;;5111611;28;20060;-70
2023/01/04 14:06:09;;;;;;;14.65;10.85;;;;;;;;;;5111786;28;20022;-70
2023/01/04 14:08:37;;;;;;;15.38;10.52;;;;;;;;;;5111947;28;20084;-71
2023/01/04 14:11:11;;;;;;;14.40;11.15;;;;;;;;;;5111883;28;20042;-71
2023/01/04 14:13:38;;;;;;;15.57;11.07;;;;;;;;;;5111981;28;20038;-70
2023/01/04 14:16:12;;;;;;;12.85;9.95;;;;;;;;;;5112039;28;20034;-70
2023/01/04 14:18:38;;;;;;;12.45;9.15;;;;;;;;;;5115675;28;20484;-71
2023/01/04 14:21:13;;;;;;;14.20;9.48;;;;;;;;;;5115797;28;20039;-70
2023/01/04 14:23:40;;;;;;;11.73;9.25;;;;;;;;;;5115732;28;20026;-70
2023/01/04 14:26:06;;;;;;;17.45;11.00;;;;;;;;;;5115312;28;20020;-71
2023/01/04 14:28:35;;;;;;;13.20;9.85;;;;;;;;;;5115274;28;20464;-70
2023/01/04 14:31:05;;;;;;;14.52;9.90;;;;;;;;;;5115437;28;20030;-68
2023/01/04 14:33:38;;;;;;;11.80;7.72;;;;;;;;;;5115239;28;20472;-71
2023/01/04 14:36:11;;;;;;;10.82;7.47;;;;;;;;;;5115416;28;20030;-70
2023/01/04 14:38:42;;;;;;;10.57;8.05;;;;;;;;;;5115447;28;20039;-71
2023/01/04 14:41:15;;;;;;;8.90;7.32;;;;;;;;;;5115320;28;20032;-71
2023/01/04 14:43:47;;;;;;;9.45;7.65;;;;;;;;;;5115391;28;20496;-71
2023/01/04 14:46:13;;;;;;;10.45;8.30;;;;;;;;;;5097127;28;20027;-70
2023/01/04 14:48:40;;;;;;;11.60;7.82;;;;;;;;;;5096884;28;20030;-70
2023/01/04 14:51:07;;;;;;;12.60;8.27;;;;;;;;;;5115229;28;20027;-71
2023/01/04 14:53:34;;;;;;;9.90;7.65;;;;;;;;;;5114773;28;20023;-70
2023/01/04 14:56:01;;;;;;;11.13;8.10;;;;;;;;;;5115105;28;20034;-71
2023/01/04 14:58:27;;;;;;;13.82;8.15;;;;;;;;;;5114882;28;20028;-70
2023/01/04 15:00:53;;;;;;;10.30;7.43;;;;;;;;;;5114660;28;20031;-70
2023/01/04 15:03:19;;;;;;;12.20;7.50;;;;;;;;;;5114739;28;20020;-70
2023/01/04 15:05:46;;;;;;;9.32;6.63;;;;;;;;;;5096706;28;20496;-70
2023/01/04 15:08:12;;;;;;;7.13;5.35;;;;;;;;;;5114638;28;20426;-70
2023/01/04 15:10:39;;;;;;;8.85;6.00;;;;;;;;;;5114692;28;20425;-73
2023/01/04 15:13:06;;;;;;;8.15;5.88;;;;;;;;;;5115494;28;20027;-73
2023/01/04 15:15:32;;;;;;;13.45;6.47;;;;;;;;;;5114496;28;20068;-73
2023/01/04 15:17:59;;;;;;;11.07;7.10;;;;;;;;;;5096675;28;20018;-73
2023/01/04 15:20:25;;;;;;;14.25;6.18;;;;;;;;;;5114514;28;20036;-71
2023/01/04 15:22:52;;;;;;;11.32;5.85;;;;;;;;;;5114537;28;20501;-70
2023/01/04 15:25:18;;;;;;;7.20;4.75;;;;;;;;;;5114631;28;20027;-71
2023/01/04 15:27:44;;;;;;;8.10;4.82;;;;;;;;;;5114203;28;20034;-70